Time;durP1;ratioP1;P1;durP2;ratioP2;P2;SDS_P1;SDS_P2;PMS_P1;PMS_P2;Temp;Humidity;BMP_temperature;BMP_pressure;BME280_temperature;BME280_humidity;BME280_pressure;Samples;Min_cycle;Max_cycle;Signal;HPM_P1;HPM_P2
2022/06/26 00:00:45;;;;;;;6.70;4.43;;;21.30;70.10;;;;;;5073751;28;20518;-49
2022/06/26 00:03:10;;;;;;;8.00;3.88;;;21.30;70.30;;;;;;5074169;28;20024;-48
2022/06/26 00:05:36;;;;;;;8.15;7.07;;;21.30;70.50;;;;;;5073627;28;20024;-51
2022/06/26 00:08:02;;;;;;;12.55;8.77;;;21.10;72.80;;;;;;5073392;28;20028;-49
2022/06/26 00:10:28;;;;;;;17.33;13.40;;;21.00;73.80;;;;;;5073646;28;20029;-50
2022/06/26 00:12:54;;;;;;;21.55;14.57;;;20.70;76.00;;;;;;5073179;28;20080;-48
2022/06/26 00:15:20;;;;;;;17.77;13.32;;;20.40;77.60;;;;;;5073269;28;20048;-48
2022/06/26 00:17:45;;;;;;;17.30;14.05;;;20.30;78.10;;;;;;5073375;28;20025;-48
2022/06/26 00:20:11;;;;;;;14.35;12.73;;;20.10;79.20;;;;;;5073396;28;20020;-49
2022/06/26 00:22:37;;;;;;;13.90;12.45;;;19.90;79.90;;;;;;5073044;28;20178;-49
2022/06/26 00:25:03;;;;;;;16.63;13.18;;;19.80;80.50;;;;;;5073116;28;20024;-49
2022/06/26 00:27:29;;;;;;;12.93;11.65;;;19.80;81.00;;;;;;5071641;28;20028;-49
2022/06/26 00:29:55;;;;;;;18.02;12.27;;;19.60;81.80;;;;;;5073381;28;20040;-49
2022/06/26 00:32:20;;;;;;;14.05;11.82;;;19.50;82.30;;;;;;5073200;28;20465;-53
2022/06/26 00:34:46;;;;;;;14.88;10.25;;;19.30;82.80;;;;;;5073082;28;20078;-49
2022/06/26 00:37:11;;;;;;;13.35;10.30;;;19.30;83.20;;;;;;5073576;28;20487;-49
2022/06/26 00:39:37;;;;;;;12.40;9.52;;;19.20;83.60;;;;;;5073803;28;20017;-49
2022/06/26 00:42:03;;;;;;;11.82;10.25;;;19.20;83.70;;;;;;5072994;28;20023;-50
2022/06/26 00:44:29;;;;;;;12.60;9.93;;;19.20;83.70;;;;;;5071415;28;20025;-49
2022/06/26 00:46:55;;;;;;;15.05;9.63;;;19.20;83.60;;;;;;5073159;28;20492;-49
2022/06/26 00:49:21;;;;;;;12.45;9.63;;;19.30;83.20;;;;;;5072638;28;20064;-49
2022/06/26 00:51:50;;;;;;;11.80;9.23;;;19.30;83.10;;;;;;5072781;28;20361;-49
2022/06/26 00:54:17;;;;;;;12.70;9.40;;;19.30;83.00;;;;;;5072739;28;20056;-49
2022/06/26 00:56:42;;;;;;;12.55;8.98;;;19.30;82.90;;;;;;5072958;28;20476;-49
2022/06/26 00:59:09;;;;;;;10.65;9.00;;;19.40;82.60;;;;;;5072533;28;20063;-53
2022/06/26 01:01:34;;;;;;;14.25;10.13;;;19.40;82.70;;;;;;5074215;28;20028;-48
2022/06/26 01:04:01;;;;;;;11.10;8.70;;;19.40;82.60;;;;;;5076188;28;20024;-49
2022/06/26 01:06:29;;;;;;;8.35;7.55;;;19.40;82.70;;;;;;5076234;28;20100;-50
2022/06/26 01:08:56;;;;;;;9.23;7.40;;;19.40;82.60;;;;;;5076356;28;20384;-49
2022/06/26 01:11:24;;;;;;;9.27;7.38;;;19.50;82.30;;;;;;5076296;28;20029;-50
2022/06/26 01:13:52;;;;;;;7.55;6.72;;;19.40;82.20;;;;;;5075955;28;20052;-48
2022/06/26 01:16:19;;;;;;;9.57;7.50;;;19.50;82.40;;;;;;5076215;28;20107;-48
2022/06/26 01:18:47;;;;;;;8.88;7.68;;;19.50;82.20;;;;;;5076112;28;20020;-49
2022/06/26 01:21:13;;;;;;;12.88;7.45;;;19.60;82.40;;;;;;5077084;28;20440;-49
2022/06/26 01:23:39;;;;;;;10.20;7.13;;;19.70;82.20;;;;;;5075886;28;20054;-50
2022/06/26 01:26:05;;;;;;;11.40;7.18;;;19.50;82.20;;;;;;5076050;28;20024;-49
2022/06/26 01:28:31;;;;;;;8.23;7.20;;;19.50;82.30;;;;;;5074804;28;20471;-50
2022/06/26 01:30:57;;;;;;;10.73;6.28;;;19.50;82.80;;;;;;5075699;28;20027;-49
2022/06/26 01:33:23;;;;;;;9.05;7.22;;;19.50;83.00;;;;;;5075645;28;20431;-49
2022/06/26 01:35:48;;;;;;;8.45;7.50;;;19.30;83.80;;;;;;5075749;28;20029;-50
2022/06/26 01:38:21;;;;;;;8.50;7.38;;;19.40;83.60;;;;;;5076141;28;20035;-48
2022/06/26 01:40:47;;;;;;;11.23;8.00;;;19.40;83.20;;;;;;5076038;28;20028;-49
2022/06/26 01:43:15;;;;;;;6.55;6.05;;;19.20;83.60;;;;;;5075696;28;20032;-50
2022/06/26 01:45:51;;;;;;;10.25;7.38;;;19.20;84.20;;;;;;5075471;28;20032;-50
2022/06/26 01:48:18;;;;;;;14.48;8.50;;;19.10;84.80;;;;;;5076031;28;20586;-49
2022/06/26 01:50:44;;;;;;;8.25;7.40;;;19.10;84.70;;;;;;5075625;28;20156;-48
2022/06/26 01:53:10;;;;;;;8.02;7.00;;;19.00;84.60;;;;;;5075434;28;20031;-48
2022/06/26 01:55:37;;;;;;;11.60;7.65;;;19.10;84.90;;;;;;5075360;28;20056;-49
2022/06/26 01:58:03;;;;;;;9.30;7.90;;;19.10;84.80;;;;;;5075491;28;20021;-48
2022/06/26 02:00:30;;;;;;;8.98;7.55;;;19.00;85.30;;;;;;5075826;28;20538;-51
2022/06/26 02:02:56;;;;;;;10.88;7.90;;;18.80;85.60;;;;;;5075531;28;20484;-48
2022/06/26 02:05:23;;;;;;;12.70;7.60;;;18.80;85.90;;;;;;5075496;28;20020;-49
2022/06/26 02:07:49;;;;;;;10.77;7.45;;;18.80;86.00;;;;;;5074028;28;20028;-52
2022/06/26 02:15:50;;;;;;;12.93;7.70;;;18.80;85.90;;;;;;5074891;28;20048;-50
2022/06/26 02:18:15;;;;;;;8.80;7.35;;;18.70;86.30;;;;;;5075073;28;20123;-52
2022/06/26 02:20:43;;;;;;;10.10;7.30;;;18.60;86.60;;;;;;5075269;28;20024;-50
2022/06/26 02:23:10;;;;;;;9.77;7.65;;;18.70;86.30;;;;;;5074835;28;20066;-49
2022/06/26 02:25:36;;;;;;;7.72;6.72;;;18.70;86.20;;;;;;5075095;28;20039;-49
2022/06/26 02:28:02;;;;;;;12.52;6.97;;;18.80;86.20;;;;;;5074882;28;20028;-48
2022/06/26 02:30:28;;;;;;;9.85;5.75;;;18.50;86.60;;;;;;5075331;28;20024;-47
2022/06/26 02:32:56;;;;;;;7.78;7.05;;;18.50;87.10;;;;;;5075012;28;20073;-49
2022/06/26 02:35:25;;;;;;;6.85;5.80;;;18.50;87.00;;;;;;5074711;28;20081;-49
2022/06/26 02:37:52;;;;;;;9.07;6.40;;;18.60;87.10;;;;;;5074539;28;20017;-53
2022/06/26 02:40:21;;;;;;;8.32;6.40;;;18.70;86.70;;;;;;5074565;28;20055;-50
2022/06/26 02:42:47;;;;;;;9.82;6.47;;;18.70;86.70;;;;;;5073072;28;20016;-49
2022/06/26 02:45:14;;;;;;;6.63;5.95;;;18.60;86.70;;;;;;5074337;28;20028;-49
2022/06/26 02:47:40;;;;;;;7.10;6.40;;;18.70;86.60;;;;;;5074499;28;20131;-48
2022/06/26 02:50:07;;;;;;;10.15;6.10;;;18.60;86.30;;;;;;5075037;28;20021;-50
2022/06/26 02:52:33;;;;;;;12.20;6.63;;;18.70;86.30;;;;;;5074199;28;20086;-49
2022/06/26 02:55:00;;;;;;;8.00;5.95;;;18.80;86.20;;;;;;5074295;28;20448;-50
2022/06/26 02:57:26;;;;;;;9.05;6.93;;;18.80;86.10;;;;;;5073610;28;20039;-49
2022/06/26 19:55:41;;;;;;;5.82;4.28;;;20.20;70.60;;;;;;5071781;28;20920;-51
2022/06/26 19:58:08;;;;;;;5.90;3.95;;;20.30;73.50;;;;;;5053073;28;20029;-50
2022/06/26 20:00:35;;;;;;;7.53;4.03;;;20.30;74.80;;;;;;5071343;28;20480;-49
2022/06/26 20:05:48;;;;;;;5.70;3.20;;;20.30;74.80;;;;;;5071054;28;20078;-50
2022/06/26 20:08:14;;;;;;;9.52;4.53;;;20.30;73.80;;;;;;5069464;28;20054;-52
2022/06/26 20:10:40;;;;;;;6.72;3.55;;;20.40;73.40;;;;;;5068971;28;20075;-50
2022/06/26 20:13:07;;;;;;;4.63;3.03;;;20.40;73.40;;;;;;5070416;28;20057;-49
2022/06/26 20:15:32;;;;;;;7.95;3.83;;;20.40;73.20;;;;;;5070049;28;20068;-49
2022/06/26 20:17:59;;;;;;;6.28;4.85;;;20.40;73.30;;;;;;5069966;28;20033;-49
2022/06/26 20:20:26;;;;;;;5.65;4.10;;;20.30;73.70;;;;;;5070299;28;20385;-50
2022/06/26 20:22:52;;;;;;;4.80;4.30;;;20.20;75.30;;;;;;5069985;28;20020;-52
2022/06/26 20:25:18;;;;;;;8.15;4.35;;;20.20;75.20;;;;;;5069981;28;20029;-51
2022/06/26 20:27:45;;;;;;;5.18;3.40;;;20.20;75.30;;;;;;5068402;28;20025;-51
2022/06/26 20:30:11;;;;;;;8.95;3.65;;;20.30;74.70;;;;;;5070173;28;20052;-52
2022/06/26 20:32:37;;;;;;;5.80;4.10;;;20.20;74.90;;;;;;5069971;28;20033;-49
2022/06/26 20:35:03;;;;;;;7.43;4.30;;;20.30;74.50;;;;;;5069554;28;20468;-50
2022/06/26 20:37:29;;;;;;;6.15;4.15;;;20.30;74.20;;;;;;5069559;28;20031;-52
2022/06/26 20:39:55;;;;;;;6.85;3.45;;;20.40;73.50;;;;;;5069329;28;20025;-50
2022/06/26 20:42:21;;;;;;;5.88;3.60;;;20.40;72.90;;;;;;5070619;28;20558;-51
2022/06/26 20:44:47;;;;;;;7.20;3.63;;;20.30;73.60;;;;;;5070085;28;20028;-52
2022/06/26 20:47:15;;;;;;;5.20;3.60;;;20.20;75.20;;;;;;5069829;28;20033;-50
2022/06/26 20:49:41;;;;;;;6.13;3.88;;;20.10;76.40;;;;;;5068235;28;20060;-50
2022/06/26 20:52:07;;;;;;;7.10;4.38;;;20.00;78.10;;;;;;5069381;28;20024;-50
2022/06/26 20:54:32;;;;;;;8.00;4.20;;;19.80;78.50;;;;;;5069296;28;20044;-51
2022/06/26 20:56:58;;;;;;;10.32;5.22;;;19.70;78.50;;;;;;5068579;28;20321;-49
2022/06/26 20:59:24;;;;;;;9.63;4.55;;;19.70;78.00;;;;;;5069378;28;20036;-51
2022/06/26 21:01:50;;;;;;;5.05;3.72;;;19.60;76.90;;;;;;5069372;28;20021;-51
2022/06/26 21:04:17;;;;;;;5.28;3.33;;;19.70;76.70;;;;;;5069190;28;20052;-50
2022/06/26 21:06:42;;;;;;;4.47;3.17;;;19.70;75.40;;;;;;5057535;28;20047;-49
2022/06/26 21:09:08;;;;;;;5.47;3.30;;;19.50;73.30;;;;;;5054668;28;20037;-50
2022/06/26 21:11:34;;;;;;;4.22;3.47;;;19.50;73.40;;;;;;5056073;28;20078;-50
2022/06/26 21:14:02;;;;;;;5.38;3.70;;;19.40;73.40;;;;;;5055713;28;20100;-49
2022/06/26 21:16:28;;;;;;;7.80;3.03;;;19.30;73.70;;;;;;5056077;28;20032;-51
2022/06/26 21:18:54;;;;;;;3.80;3.00;;;19.30;73.60;;;;;;5055503;28;20487;-50
2022/06/26 21:21:22;;;;;;;6.00;3.78;;;19.40;74.10;;;;;;5056141;28;20036;-51
2022/06/26 21:23:49;;;;;;;4.22;3.67;;;19.40;74.00;;;;;;5055990;28;20445;-50
2022/06/26 21:26:15;;;;;;;5.13;3.80;;;19.40;74.20;;;;;;5055717;28;20438;-50
2022/06/26 21:28:41;;;;;;;7.35;4.40;;;19.40;74.60;;;;;;5055443;28;20025;-50
2022/06/26 21:31:08;;;;;;;4.55;3.63;;;19.30;75.10;;;;;;5055560;28;20037;-48
2022/06/26 21:33:34;;;;;;;6.97;4.20;;;19.30;75.40;;;;;;5055149;28;20031;-48
2022/06/26 21:36:00;;;;;;;4.70;3.05;;;19.30;75.40;;;;;;5055498;28;20021;-51
2022/06/26 21:38:26;;;;;;;4.03;3.35;;;19.20;75.60;;;;;;5055384;28;20029;-49
2022/06/26 21:40:52;;;;;;;4.28;3.03;;;19.20;75.70;;;;;;5055472;28;20395;-51
2022/06/26 21:43:17;;;;;;;5.55;3.40;;;19.20;76.40;;;;;;5053977;28;20021;-49
2022/06/26 21:45:43;;;;;;;6.40;4.07;;;19.20;76.60;;;;;;5055224;28;20025;-50
2022/06/26 21:48:08;;;;;;;5.63;3.83;;;19.20;76.90;;;;;;5054910;28;20096;-49
2022/06/26 21:50:34;;;;;;;6.10;2.88;;;19.20;76.90;;;;;;5054912;28;20047;-49
2022/06/26 21:53:01;;;;;;;3.97;3.22;;;19.20;76.60;;;;;;5055033;28;20017;-51
2022/06/26 21:55:27;;;;;;;8.85;4.32;;;19.20;76.60;;;;;;5054658;28;20102;-52
2022/06/26 21:57:53;;;;;;;6.13;4.18;;;19.20;76.30;;;;;;5055166;28;20424;-52
2022/06/26 22:00:25;;;;;;;4.68;3.22;;;19.20;75.50;;;;;;5054790;28;20021;-49
2022/06/26 22:02:58;;;;;;;6.50;3.25;;;19.20;75.30;;;;;;5055317;28;20159;-49
2022/06/26 22:05:25;;;;;;;6.53;3.72;;;19.10;75.50;;;;;;5056172;28;20491;-49
2022/06/26 22:07:51;;;;;;;6.18;3.65;;;19.10;75.30;;;;;;5055314;28;20052;-51
2022/06/26 22:10:17;;;;;;;5.80;3.00;;;19.00;75.00;;;;;;5055291;28;20047;-50
2022/06/26 22:12:43;;;;;;;6.65;3.20;;;19.00;74.30;;;;;;5053408;28;20120;-38
2022/06/26 22:15:10;;;;;;;5.35;3.22;;;19.10;73.60;;;;;;5055791;28;20120;-38
2022/06/26 22:17:36;;;;;;;7.32;3.55;;;19.10;72.70;;;;;;5053860;28;20036;-37
2022/06/26 22:20:03;;;;;;;3.70;2.95;;;19.10;72.30;;;;;;5054740;28;20021;-38
2022/06/26 22:22:29;;;;;;;4.40;2.42;;;19.10;72.00;;;;;;5053159;28;20021;-37
2022/06/26 22:24:55;;;;;;;4.68;3.35;;;19.20;71.20;;;;;;5054533;28;20054;-38
2022/06/26 22:30:05;;;;;;;3.22;2.55;;;19.30;70.10;;;;;;5054856;28;20059;-37
2022/06/26 22:32:31;;;;;;;3.83;2.20;;;19.30;69.90;;;;;;5054523;28;20469;-38
2022/06/26 22:34:56;;;;;;;3.90;2.30;;;19.20;70.30;;;;;;5054438;28;20052;-38
2022/06/26 22:37:22;;;;;;;5.65;2.85;;;19.20;70.50;;;;;;5054541;28;20033;-38
2022/06/26 22:39:48;;;;;;;3.08;2.47;;;19.20;70.70;;;;;;5054015;28;20119;-37
2022/06/26 22:42:13;;;;;;;8.43;2.95;;;19.20;70.60;;;;;;5053139;28;20021;-37
2022/06/26 22:44:39;;;;;;;5.43;2.50;;;19.20;71.00;;;;;;5054139;28;20089;-40
2022/06/26 22:47:05;;;;;;;4.55;3.75;;;19.20;71.60;;;;;;5054250;28;20032;-38
2022/06/26 22:49:30;;;;;;;9.38;3.42;;;19.20;71.40;;;;;;5053926;28;20079;-38
2022/06/26 22:51:57;;;;;;;5.30;2.92;;;19.10;71.80;;;;;;5054144;28;20067;-38
2022/06/26 22:54:23;;;;;;;3.33;2.85;;;19.10;72.40;;;;;;5053009;28;20048;-36
2022/06/26 22:56:52;;;;;;;4.70;3.20;;;19.10;72.90;;;;;;5054667;28;20025;-36
2022/06/26 22:59:18;;;;;;;4.82;3.80;;;19.10;73.40;;;;;;5052905;28;20021;-37
2022/06/26 23:01:43;;;;;;;7.35;4.00;;;19.00;74.00;;;;;;5052645;28;20392;-37
2022/06/26 23:04:09;;;;;;;3.90;3.47;;;19.00;74.20;;;;;;5052364;28;20507;-37
2022/06/26 23:06:35;;;;;;;3.78;3.33;;;18.90;74.70;;;;;;5054036;28;20075;-37
2022/06/26 23:09:01;;;;;;;4.28;3.88;;;19.00;75.00;;;;;;5052777;28;20071;-37
2022/06/26 23:11:27;;;;;;;5.85;3.63;;;18.90;75.20;;;;;;5054059;28;20029;-37
2022/06/26 23:13:53;;;;;;;6.30;3.67;;;18.80;75.90;;;;;;5054047;28;20033;-38
2022/06/26 23:16:19;;;;;;;4.70;3.75;;;18.80;76.40;;;;;;5052624;28;20116;-37
2022/06/26 23:18:45;;;;;;;6.18;4.00;;;18.80;76.60;;;;;;5054108;28;20025;-38
2022/06/26 23:21:10;;;;;;;5.05;3.47;;;18.80;76.60;;;;;;5054488;28;20373;-37
2022/06/26 23:23:36;;;;;;;4.78;4.28;;;18.80;76.90;;;;;;5053442;28;20036;-38
2022/06/26 23:26:02;;;;;;;4.63;3.88;;;18.80;76.70;;;;;;5053695;28;20055;-38
2022/06/26 23:28:28;;;;;;;7.15;4.95;;;18.80;76.70;;;;;;5053273;28;20484;-38
2022/06/26 23:30:54;;;;;;;6.15;3.92;;;18.80;77.00;;;;;;5053603;28;20017;-36
2022/06/26 23:33:20;;;;;;;4.03;3.63;;;18.70;77.40;;;;;;5054438;28;20025;-37
2022/06/26 23:35:45;;;;;;;5.35;4.35;;;18.70;77.70;;;;;;5053115;28;20511;-37
2022/06/26 23:38:11;;;;;;;6.60;4.47;;;18.60;77.90;;;;;;5053560;28;20048;-37
2022/06/26 23:40:39;;;;;;;5.38;4.63;;;18.60;78.10;;;;;;5053051;28;20035;-38
2022/06/26 23:43:04;;;;;;;6.82;4.60;;;18.60;78.20;;;;;;5053214;28;20096;-37
2022/06/26 23:45:30;;;;;;;7.78;4.13;;;18.60;78.30;;;;;;5053136;28;20056;-37
2022/06/26 23:47:56;;;;;;;10.82;5.78;;;18.50;78.40;;;;;;5053028;28;20032;-37
2022/06/26 23:50:22;;;;;;;6.95;4.22;;;18.60;78.40;;;;;;5052995;28;20366;-38
2022/06/26 23:52:47;;;;;;;8.15;5.40;;;18.60;78.70;;;;;;5051855;28;20111;-37
2022/06/26 23:55:13;;;;;;;6.57;4.78;;;18.60;78.80;;;;;;5052650;28;20041;-37
2022/06/26 23:57:39;;;;;;;4.43;4.03;;;18.60;78.80;;;;;;5053069;28;20390;-37
